createdAt,value
2022-09-22T00:00:15.682Z,100.00
2022-09-22T00:02:44.718Z,100.00
2022-09-22T00:05:14.274Z,100.00
2022-09-22T00:07:43.139Z,100.00
2022-09-22T00:10:12.893Z,100.00
2022-09-22T00:12:42.503Z,100.00
2022-09-22T00:15:12.232Z,100.00
2022-09-22T00:17:41.738Z,100.00
2022-09-22T00:20:12.283Z,100.00
2022-09-22T00:22:44.403Z,100.00
2022-09-22T00:25:13.330Z,100.00
2022-09-22T00:27:42.168Z,100.00
2022-09-22T00:30:12.111Z,100.00
2022-09-22T00:32:41.678Z,100.00
2022-09-22T00:35:10.991Z,100.00
2022-09-22T00:37:39.873Z,100.00
2022-09-22T00:40:11.395Z,100.00
2022-09-22T00:42:40.764Z,100.00
2022-09-22T00:45:13.665Z,100.00
2022-09-22T00:47:46.146Z,100.00
2022-09-22T00:50:20.985Z,100.00
2022-09-22T00:53:07.228Z,100.00
2022-09-22T00:55:56.783Z,100.00
2022-09-22T00:58:32.932Z,100.00
2022-09-22T01:01:09.238Z,100.00
2022-09-22T01:03:44.855Z,100.00
2022-09-22T01:06:24.838Z,100.00
2022-09-22T01:08:55.905Z,100.00
2022-09-22T01:11:31.737Z,100.00
2022-09-22T01:14:04.141Z,100.00
2022-09-22T01:16:51.370Z,100.00
2022-09-22T01:19:57.546Z,100.00
2022-09-22T01:23:01.302Z,100.00
2022-09-22T01:26:36.382Z,100.00
2022-09-22T01:29:07.230Z,100.00
2022-09-22T01:32:13.608Z,100.00
2022-09-22T01:34:51.758Z,100.00
2022-09-22T01:37:56.419Z,100.00
2022-09-22T01:40:36.161Z,100.00
2022-09-22T01:43:33.599Z,100.00
2022-09-22T01:46:10.278Z,100.00
2022-09-22T01:48:44.394Z,100.00
2022-09-22T01:51:27.106Z,100.00
2022-09-22T01:54:03.872Z,100.00
2022-09-22T01:56:38.689Z,100.00
2022-09-22T01:59:13.900Z,100.00
2022-09-22T02:01:51.099Z,100.00
2022-09-22T02:04:32.131Z,100.00
2022-09-22T02:07:06.549Z,100.00
2022-09-22T02:10:20.227Z,100.00
2022-09-22T02:13:23.860Z,100.00
2022-09-22T02:16:04.254Z,100.00
2022-09-22T02:19:11.897Z,100.00
2022-09-22T02:21:46.761Z,100.00
2022-09-22T02:24:41.089Z,100.00
2022-09-22T02:27:43.508Z,100.00
2022-09-22T02:30:14.400Z,100.00
2022-09-22T02:32:50.725Z,100.00
2022-09-22T02:35:21.850Z,100.00
2022-09-22T02:38:28.030Z,100.00
2022-09-22T02:41:16.972Z,100.00
2022-09-22T02:43:58.805Z,100.00
2022-09-22T02:46:51.020Z,100.00
2022-09-22T02:49:22.314Z,100.00
2022-09-22T02:51:54.548Z,100.00
2022-09-22T02:54:25.404Z,100.00
2022-09-22T02:56:56.301Z,99.97
2022-09-22T02:59:27.021Z,99.90
2022-09-22T03:01:57.595Z,99.58
2022-09-22T03:04:28.677Z,99.27
2022-09-22T03:06:59.469Z,98.80
2022-09-22T03:09:30.757Z,93.61
2022-09-22T03:12:00.671Z,93.79
2022-09-22T03:14:32.273Z,94.83
2022-09-22T03:17:02.963Z,93.15
2022-09-22T03:19:33.412Z,91.00
2022-09-22T03:22:03.857Z,91.34
2022-09-22T03:24:34.882Z,91.42
2022-09-22T03:27:04.893Z,91.28
2022-09-22T03:29:35.831Z,91.17
2022-09-22T03:32:05.789Z,90.55
2022-09-22T03:34:36.273Z,90.27
2022-09-22T03:37:06.495Z,88.86
2022-09-22T03:39:36.494Z,88.20
2022-09-22T03:42:07.226Z,88.18
2022-09-22T03:44:38.756Z,87.63
2022-09-22T03:47:09.013Z,88.52
2022-09-22T03:49:39.569Z,86.15
2022-09-22T03:52:09.717Z,85.96
2022-09-22T03:54:42.017Z,85.66
2022-09-22T03:57:11.552Z,84.92
2022-09-22T03:59:42.112Z,85.02
2022-09-22T04:02:13.449Z,84.69
2022-09-22T04:04:44.564Z,85.48
2022-09-22T04:07:15.034Z,84.68
2022-09-22T04:09:45.968Z,85.05
2022-09-22T04:12:15.846Z,85.61
2022-09-22T04:14:45.973Z,82.79
2022-09-22T04:17:16.155Z,81.82
2022-09-22T04:19:46.857Z,82.07
2022-09-22T04:22:17.372Z,83.03
2022-09-22T04:24:47.968Z,82.27
2022-09-22T04:27:20.674Z,81.93
2022-09-22T04:29:53.455Z,81.97
2022-09-22T04:32:28.210Z,81.23
2022-09-22T04:35:02.568Z,80.90
2022-09-22T04:37:32.978Z,79.77
2022-09-22T04:40:03.500Z,79.14
2022-09-22T04:42:38.440Z,79.35
2022-09-22T04:45:15.723Z,78.66
2022-09-22T04:47:50.344Z,77.44
2022-09-22T04:50:23.036Z,76.92
2022-09-22T04:52:58.151Z,76.67
2022-09-22T04:55:41.416Z,77.20
2022-09-22T04:58:12.345Z,75.66
2022-09-22T05:00:48.305Z,76.96
2022-09-22T05:03:22.063Z,76.38
2022-09-22T05:06:01.562Z,76.39
2022-09-22T05:08:31.957Z,75.01
2022-09-22T05:11:04.329Z,74.47
2022-09-22T05:13:34.316Z,72.91
2022-09-22T05:16:04.184Z,73.79
2022-09-22T05:18:38.378Z,74.10
2022-09-22T05:21:09.375Z,74.93
2022-09-22T05:23:41.559Z,72.74
2022-09-22T05:26:31.651Z,72.31
2022-09-22T05:29:06.222Z,71.36
2022-09-22T05:31:38.886Z,71.52
2022-09-22T05:34:11.474Z,71.49
2022-09-22T05:36:44.017Z,70.71
2022-09-22T05:39:14.558Z,70.60
2022-09-22T05:41:44.315Z,69.00
2022-09-22T05:44:17.264Z,68.46
2022-09-22T05:46:47.738Z,69.38
2022-09-22T05:49:20.065Z,71.02
2022-09-22T05:51:56.191Z,70.07
2022-09-22T05:54:30.901Z,68.53
2022-09-22T05:57:04.784Z,69.47
2022-09-22T05:59:36.360Z,70.15
2022-09-22T06:02:23.760Z,68.03
2022-09-22T06:04:58.870Z,69.01
2022-09-22T06:07:28.692Z,68.09
2022-09-22T06:09:58.258Z,68.83
2022-09-22T06:12:27.484Z,68.06
2022-09-22T06:14:57.779Z,67.83
2022-09-22T06:17:32.135Z,66.83
2022-09-22T06:20:04.377Z,66.20
2022-09-22T06:22:37.323Z,65.83
2022-09-22T06:25:10.337Z,63.91
2022-09-22T06:27:52.365Z,63.49
2022-09-22T06:30:23.697Z,62.24
2022-09-22T06:32:58.074Z,61.53
2022-09-22T06:35:33.434Z,62.86
2022-09-22T06:38:04.432Z,62.88
2022-09-22T06:40:37.413Z,61.89
2022-09-22T06:43:13.260Z,62.26
2022-09-22T06:45:49.234Z,62.49
2022-09-22T06:48:21.744Z,62.43
2022-09-22T06:50:55.856Z,60.75
2022-09-22T06:53:27.841Z,60.70
2022-09-22T06:56:22.053Z,61.39
2022-09-22T06:59:08.705Z,60.12
2022-09-22T07:01:42.337Z,58.15
2022-09-22T07:04:13.793Z,58.03
2022-09-22T07:06:44.333Z,58.95
2022-09-22T07:09:14.001Z,59.35
2022-09-22T07:11:47.738Z,59.11
2022-09-22T07:14:17.380Z,59.96
2022-09-22T07:16:46.811Z,62.69
2022-09-22T07:19:16.568Z,60.73
2022-09-22T07:21:46.099Z,61.10
2022-09-22T07:24:15.878Z,61.25
2022-09-22T07:26:45.940Z,61.64
2022-09-22T07:29:18.740Z,61.26
2022-09-22T07:31:48.150Z,61.09
2022-09-22T07:34:25.095Z,60.24
2022-09-22T07:36:56.645Z,60.39
2022-09-22T07:39:26.244Z,59.70
2022-09-22T07:41:55.894Z,59.69
2022-09-22T07:44:44.704Z,59.72
2022-09-22T07:47:14.087Z,60.42
2022-09-22T07:49:44.042Z,59.81
2022-09-22T07:52:15.380Z,59.26
2022-09-22T07:54:44.882Z,58.54
2022-09-22T07:57:14.483Z,59.11
2022-09-22T07:59:43.839Z,60.05
2022-09-22T08:02:13.090Z,59.25
2022-09-22T08:04:42.784Z,58.37
2022-09-22T08:07:12.852Z,58.71
2022-09-22T08:09:43.251Z,59.00
2022-09-22T08:12:15.266Z,60.03
2022-09-22T08:14:47.304Z,59.66
2022-09-22T08:17:21.065Z,59.41
2022-09-22T08:20:09.903Z,59.18
2022-09-22T08:22:51.404Z,58.05
2022-09-22T08:25:51.904Z,58.11
2022-09-22T08:28:30.066Z,57.64
2022-09-22T08:31:01.388Z,57.43
2022-09-22T08:33:41.205Z,57.14
2022-09-22T08:36:12.207Z,56.59
2022-09-22T08:38:50.574Z,57.58
2022-09-22T08:41:48.553Z,58.59
2022-09-22T08:44:27.315Z,57.68
2022-09-22T08:47:03.916Z,57.28
2022-09-22T08:50:00.285Z,57.27
2022-09-22T08:52:53.859Z,56.95
2022-09-22T08:55:27.593Z,57.17
2022-09-22T08:58:07.797Z,57.61
2022-09-22T09:01:10.524Z,58.06
2022-09-22T09:03:58.722Z,58.20
2022-09-22T09:06:40.322Z,58.02
2022-09-22T09:09:35.935Z,57.84
2022-09-22T09:12:17.049Z,57.33
2022-09-22T09:15:11.036Z,58.25
2022-09-22T09:17:45.889Z,57.00
2022-09-22T09:20:21.030Z,57.50
2022-09-22T09:22:59.741Z,57.64
2022-09-22T09:25:42.385Z,58.27
2022-09-22T09:28:27.038Z,58.69
2022-09-22T09:31:07.116Z,58.67
2022-09-22T09:33:46.008Z,57.50
2022-09-22T09:36:21.671Z,58.28
2022-09-22T09:38:59.655Z,58.24
2022-09-22T09:41:35.223Z,57.83
2022-09-22T09:44:06.732Z,58.95
2022-09-22T09:47:03.109Z,59.08
2022-09-22T09:49:32.870Z,58.53
2022-09-22T09:52:03.135Z,58.06
2022-09-22T09:54:37.626Z,58.28
2022-09-22T09:57:14.343Z,58.19
2022-09-22T10:00:06.885Z,58.98
2022-09-22T10:03:01.585Z,58.16
2022-09-22T10:05:33.413Z,58.51
2022-09-22T10:08:16.500Z,59.16
2022-09-22T10:10:46.178Z,59.37
2022-09-22T10:13:24.625Z,58.99
2022-09-22T10:16:07.640Z,58.20
2022-09-22T10:18:46.200Z,59.13
2022-09-22T10:21:17.385Z,60.41
2022-09-22T10:23:49.178Z,60.63
2022-09-22T10:26:33.720Z,60.72
2022-09-22T10:29:22.727Z,62.00
2022-09-22T10:32:03.602Z,60.99
2022-09-22T10:34:39.468Z,61.64
2022-09-22T10:37:12.903Z,60.39
2022-09-22T10:39:52.497Z,61.70
2022-09-22T10:42:34.431Z,62.27
2022-09-22T10:45:08.300Z,62.41
2022-09-22T10:47:56.609Z,61.60
2022-09-22T10:51:08.394Z,61.78
2022-09-22T10:54:06.823Z,62.13
2022-09-22T10:56:50.777Z,62.64
2022-09-22T10:59:47.684Z,62.88
2022-09-22T11:03:08.351Z,64.15
2022-09-22T11:06:03.378Z,63.78
2022-09-22T11:09:13.718Z,63.76
2022-09-22T11:12:19.168Z,63.75
2022-09-22T11:14:57.659Z,64.12
2022-09-22T11:18:04.777Z,64.60
2022-09-22T11:20:49.672Z,65.16
2022-09-22T11:23:30.735Z,65.69
2022-09-22T11:26:15.939Z,66.92
2022-09-22T11:29:07.794Z,67.12
2022-09-22T11:32:02.697Z,66.76
2022-09-22T11:34:54.073Z,67.13
2022-09-22T11:37:42.061Z,66.94
2022-09-22T11:40:40.707Z,68.24
2022-09-22T11:43:41.240Z,68.03
2022-09-22T11:46:39.083Z,69.31
2022-09-22T11:49:47.241Z,69.77
2022-09-22T11:52:27.784Z,69.20
2022-09-22T11:55:09.885Z,70.23
2022-09-22T11:57:43.996Z,69.89
2022-09-22T12:00:20.256Z,70.68
2022-09-22T12:03:12.344Z,71.12
2022-09-22T12:05:43.288Z,71.56
2022-09-22T12:08:22.072Z,70.85
2022-09-22T12:10:53.181Z,71.61
2022-09-22T12:13:26.683Z,72.11
2022-09-22T12:16:10.911Z,72.46
2022-09-22T12:19:06.258Z,72.25
2022-09-22T12:21:59.349Z,72.98
2022-09-22T12:24:28.476Z,72.84
2022-09-22T12:26:57.719Z,73.58
2022-09-22T12:29:30.645Z,73.44
2022-09-22T12:32:01.176Z,74.04
2022-09-22T12:34:41.058Z,74.09
2022-09-22T12:37:15.804Z,73.80
2022-09-22T12:39:48.135Z,74.42
2022-09-22T12:42:23.094Z,74.44
2022-09-22T12:45:22.485Z,74.82
2022-09-22T12:47:55.290Z,76.10
2022-09-22T12:50:43.392Z,76.51
2022-09-22T12:53:24.670Z,76.51
2022-09-22T12:55:58.494Z,72.80
2022-09-22T12:58:30.382Z,71.20
2022-09-22T13:01:36.431Z,68.67
2022-09-22T13:04:20.006Z,68.79
2022-09-22T13:06:49.064Z,69.16
2022-09-22T13:09:27.002Z,67.79
2022-09-22T13:12:14.125Z,68.43
2022-09-22T13:15:13.437Z,68.09
2022-09-22T13:17:52.311Z,68.83
2022-09-22T13:20:33.760Z,69.32
2022-09-22T13:23:13.443Z,69.49
2022-09-22T13:25:45.729Z,71.15
2022-09-22T13:28:18.683Z,70.86
2022-09-22T13:31:02.235Z,72.41
2022-09-22T13:33:36.255Z,73.05
2022-09-22T13:36:17.906Z,73.19
2022-09-22T13:38:55.153Z,73.40
2022-09-22T13:41:35.165Z,73.99
2022-09-22T13:44:11.512Z,74.40
2022-09-22T13:46:46.847Z,75.29
2022-09-22T13:49:32.148Z,75.34
2022-09-22T13:52:07.187Z,76.21
2022-09-22T13:54:38.723Z,76.45
2022-09-22T13:57:19.439Z,76.34
2022-09-22T13:59:48.629Z,76.91
2022-09-22T14:02:28.143Z,77.76
2022-09-22T14:05:19.632Z,77.80
2022-09-22T14:08:10.506Z,78.23
2022-09-22T14:10:39.322Z,78.42
2022-09-22T14:13:37.663Z,78.07
2022-09-22T14:16:22.298Z,78.44
2022-09-22T14:19:16.944Z,79.05
2022-09-22T14:21:57.291Z,79.27
2022-09-22T14:24:27.881Z,79.43
2022-09-22T14:27:04.544Z,79.18
2022-09-22T14:29:48.595Z,79.93
2022-09-22T14:32:45.757Z,79.29
2022-09-22T14:35:24.663Z,79.59
2022-09-22T14:37:56.154Z,79.47
2022-09-22T14:40:28.615Z,79.38
2022-09-22T14:43:00.153Z,79.94
2022-09-22T14:45:30.553Z,80.40
2022-09-22T14:48:19.603Z,80.27
2022-09-22T14:50:55.687Z,80.57
2022-09-22T14:53:48.159Z,80.54
2022-09-22T14:56:28.838Z,81.06
2022-09-22T14:59:27.506Z,81.05
2022-09-22T15:02:16.646Z,81.34
2022-09-22T15:04:51.849Z,80.98
2022-09-22T15:07:30.621Z,80.87
2022-09-22T15:10:03.644Z,81.44
2022-09-22T15:12:39.196Z,80.80
2022-09-22T15:15:27.986Z,80.96
2022-09-22T15:18:17.884Z,81.05
2022-09-22T15:21:04.560Z,81.20
2022-09-22T15:23:40.774Z,80.97
2022-09-22T15:26:25.479Z,81.07
2022-09-22T15:28:57.048Z,80.57
2022-09-22T15:31:30.980Z,81.10
2022-09-22T15:34:04.062Z,81.53
2022-09-22T15:36:38.146Z,81.75
2022-09-22T15:39:15.381Z,82.08
2022-09-22T15:41:45.726Z,81.85
2022-09-22T15:44:15.978Z,82.40
2022-09-22T15:46:47.280Z,82.13
2022-09-22T15:49:19.204Z,81.94
2022-09-22T15:51:50.642Z,82.06
2022-09-22T15:54:22.506Z,82.02
2022-09-22T15:56:54.781Z,81.95
2022-09-22T15:59:27.693Z,82.15
2022-09-22T16:01:58.858Z,82.32
2022-09-22T16:04:32.567Z,82.57
2022-09-22T16:07:06.006Z,82.82
2022-09-22T16:09:35.415Z,82.86
2022-09-22T16:12:07.789Z,83.08
2022-09-22T16:14:37.704Z,82.83
2022-09-22T16:17:08.761Z,83.71
2022-09-22T16:19:37.931Z,83.58
2022-09-22T16:22:07.182Z,83.82
2022-09-22T16:24:36.622Z,84.47
2022-09-22T16:27:07.445Z,84.84
2022-09-22T16:29:38.674Z,84.56
2022-09-22T16:32:08.606Z,84.79
2022-09-22T16:34:38.322Z,84.71
2022-09-22T16:37:07.444Z,84.96
2022-09-22T16:39:36.410Z,85.05
2022-09-22T16:42:05.388Z,85.46
2022-09-22T16:44:34.756Z,85.44
2022-09-22T16:47:03.691Z,85.17
2022-09-22T16:49:34.882Z,85.76
2022-09-22T16:52:03.912Z,84.75
2022-09-22T16:54:34.072Z,84.77
2022-09-22T16:57:03.245Z,85.14
2022-09-22T16:59:32.646Z,84.84
2022-09-22T17:02:02.273Z,85.71
2022-09-22T17:04:33.448Z,86.40
2022-09-22T17:07:02.861Z,86.40
2022-09-22T17:09:33.185Z,86.11
2022-09-22T17:12:09.667Z,86.53
2022-09-22T17:14:38.873Z,86.79
2022-09-22T17:17:09.063Z,86.10
2022-09-22T17:19:38.497Z,86.86
2022-09-22T17:22:08.345Z,86.68
2022-09-22T17:24:37.715Z,86.90
2022-09-22T17:27:07.236Z,87.05
2022-09-22T17:29:36.838Z,87.00
2022-09-22T17:32:09.273Z,87.01
2022-09-22T17:34:39.512Z,87.32
2022-09-22T17:37:10.935Z,87.28
2022-09-22T17:39:40.628Z,87.21
2022-09-22T17:42:09.682Z,87.45
2022-09-22T17:44:38.925Z,87.74
2022-09-22T17:47:26.644Z,87.84
2022-09-22T17:50:14.405Z,88.14
2022-09-22T17:53:04.136Z,88.34
2022-09-22T17:55:34.190Z,88.81
2022-09-22T17:58:03.134Z,88.75
2022-09-22T18:00:34.860Z,89.31
2022-09-22T18:03:04.914Z,88.41
2022-09-22T18:05:34.109Z,88.62
2022-09-22T18:08:03.160Z,88.52
2022-09-22T18:10:35.187Z,88.70
2022-09-22T18:13:05.866Z,88.51
2022-09-22T18:15:37.533Z,88.94
2022-09-22T18:18:06.951Z,89.53
2022-09-22T18:20:36.263Z,89.45
2022-09-22T18:23:05.220Z,89.84
2022-09-22T18:25:35.344Z,89.59
2022-09-22T18:28:06.625Z,89.53
2022-09-22T18:30:36.332Z,89.54
2022-09-22T18:33:05.487Z,89.96
2022-09-22T18:35:35.044Z,90.05
2022-09-22T18:38:05.030Z,90.46
2022-09-22T18:40:34.123Z,90.76
2022-09-22T18:43:03.171Z,91.58
2022-09-22T18:45:33.139Z,92.31
2022-09-22T18:48:04.028Z,91.83
2022-09-22T18:50:36.770Z,91.95
2022-09-22T18:53:07.249Z,91.17
2022-09-22T18:55:36.396Z,91.69
2022-09-22T18:58:05.417Z,91.84
2022-09-22T19:00:34.632Z,91.45
2022-09-22T19:03:03.818Z,90.81
2022-09-22T19:05:33.005Z,91.13
2022-09-22T19:08:03.026Z,90.30
2022-09-22T19:10:34.382Z,90.51
2022-09-22T19:13:06.419Z,90.21
2022-09-22T19:15:36.031Z,89.95
2022-09-22T19:18:05.833Z,89.95
2022-09-22T19:20:34.941Z,90.38
2022-09-22T19:23:04.676Z,90.42
2022-09-22T19:25:34.124Z,90.13
2022-09-22T19:28:03.328Z,89.69
2022-09-22T19:30:32.437Z,89.15
2022-09-22T19:33:02.033Z,89.27
2022-09-22T19:35:31.095Z,89.19
2022-09-22T19:38:00.895Z,88.56
2022-09-22T19:40:29.943Z,87.98
2022-09-22T19:43:00.561Z,87.59
2022-09-22T19:45:31.420Z,86.89
2022-09-22T19:48:00.715Z,87.38
2022-09-22T19:50:29.548Z,87.51
2022-09-22T19:52:58.758Z,87.90
2022-09-22T19:55:27.618Z,87.73
2022-09-22T19:57:56.654Z,87.81
2022-09-22T20:00:29.216Z,87.57
2022-09-22T20:03:00.001Z,87.38
2022-09-22T20:05:33.517Z,87.62
2022-09-22T20:08:03.316Z,87.96
2022-09-22T20:10:33.130Z,88.53
2022-09-22T20:13:02.285Z,88.07
2022-09-22T20:15:31.258Z,88.04
2022-09-22T20:18:00.358Z,88.30
2022-09-22T20:20:33.504Z,88.68
2022-09-22T20:23:02.946Z,89.16
2022-09-22T20:25:34.359Z,88.54
2022-09-22T20:28:03.716Z,89.36
2022-09-22T20:30:33.066Z,89.45
2022-09-22T20:33:02.865Z,89.58
2022-09-22T20:35:32.126Z,89.77
2022-09-22T20:38:01.658Z,89.25
2022-09-22T20:40:30.770Z,89.03
2022-09-22T20:42:59.755Z,88.42
2022-09-22T20:45:30.143Z,88.82
2022-09-22T20:47:59.450Z,89.36
2022-09-22T20:50:28.776Z,89.48
2022-09-22T20:52:57.922Z,88.95
2022-09-22T20:55:26.923Z,89.31
2022-09-22T20:57:56.036Z,88.36
2022-09-22T21:00:25.185Z,89.12
2022-09-22T21:02:54.775Z,89.01
2022-09-22T21:05:23.890Z,89.01
2022-09-22T21:08:12.716Z,89.17
2022-09-22T21:10:41.723Z,89.64
2022-09-22T21:13:10.932Z,88.25
2022-09-22T21:15:40.412Z,88.99
2022-09-22T21:18:09.944Z,88.89
2022-09-22T21:20:42.480Z,88.35
2022-09-22T21:23:11.464Z,88.06
2022-09-22T21:25:40.449Z,88.55
2022-09-22T21:28:09.552Z,88.26
2022-09-22T21:30:38.590Z,89.09
2022-09-22T21:33:12.491Z,89.16
2022-09-22T21:35:42.082Z,89.32
2022-09-22T21:38:11.190Z,89.85
2022-09-22T21:40:40.314Z,89.94
2022-09-22T21:43:09.408Z,89.70
2022-09-22T21:45:38.456Z,89.49
2022-09-22T21:48:07.777Z,88.10
2022-09-22T21:50:36.807Z,87.54
2022-09-22T21:53:06.334Z,87.96
2022-09-22T21:55:35.493Z,87.36
2022-09-22T21:58:04.888Z,88.28
2022-09-22T22:00:51.205Z,88.21
2022-09-22T22:03:33.435Z,89.22
2022-09-22T22:06:17.256Z,87.42
2022-09-22T22:09:09.106Z,88.00
2022-09-22T22:11:40.848Z,88.46
2022-09-22T22:14:12.770Z,88.49
2022-09-22T22:16:47.762Z,88.66
2022-09-22T22:19:21.137Z,89.74
2022-09-22T22:21:52.162Z,89.39
2022-09-22T22:24:37.543Z,89.32
2022-09-22T22:27:11.011Z,89.75
2022-09-22T22:29:40.503Z,90.10
2022-09-22T22:32:11.653Z,89.14
2022-09-22T22:34:40.778Z,88.79
2022-09-22T22:37:13.709Z,89.06
2022-09-22T22:39:43.156Z,89.33
2022-09-22T22:42:11.937Z,89.35
2022-09-22T22:44:41.055Z,89.81
2022-09-22T22:47:10.163Z,89.44
2022-09-22T22:49:39.047Z,89.55
2022-09-22T22:52:08.815Z,89.82
2022-09-22T22:54:37.619Z,89.63
2022-09-22T22:57:06.821Z,90.30
2022-09-22T22:59:35.954Z,89.56
2022-09-22T23:02:05.074Z,90.04
2022-09-22T23:04:34.079Z,89.53
2022-09-22T23:07:03.167Z,90.33
2022-09-22T23:09:32.088Z,90.34
2022-09-22T23:12:01.103Z,90.33
2022-09-22T23:14:30.712Z,90.29
2022-09-22T23:16:59.742Z,90.74
2022-09-22T23:19:29.126Z,90.42
2022-09-22T23:22:00.384Z,90.46
2022-09-22T23:24:29.643Z,89.19
2022-09-22T23:26:59.785Z,89.68
2022-09-22T23:29:29.121Z,88.95
2022-09-22T23:31:58.057Z,89.45
2022-09-22T23:34:27.218Z,90.17
2022-09-22T23:36:56.198Z,90.69
2022-09-22T23:39:25.324Z,90.61
2022-09-22T23:41:54.586Z,91.15
2022-09-22T23:44:23.524Z,90.98
2022-09-22T23:46:52.769Z,90.85
2022-09-22T23:49:21.685Z,91.02
2022-09-22T23:51:51.058Z,91.21
2022-09-22T23:54:20.049Z,91.08
2022-09-22T23:56:49.081Z,91.08
2022-09-22T23:59:18.063Z,91.23
